sensor_id;sensor_type;location;lat;lon;timestamp;pressure;altitude;pressure_sealevel;temperature;humidity
59272;BME280;45043;51.068;7.026;2024-02-14T00:00:47;100455.66;;;5.74;57.49
59272;BME280;45043;51.068;7.026;2024-02-14T00:03:47;100451.53;;;5.71;57.71
59272;BME280;45043;51.068;7.026;2024-02-14T00:06:50;100463.25;;;5.69;57.70
59272;BME280;45043;51.068;7.026;2024-02-14T00:09:52;100455.00;;;5.63;57.67
59272;BME280;45043;51.068;7.026;2024-02-14T00:12:53;100447.59;;;5.67;57.60
59272;BME280;45043;51.068;7.026;2024-02-14T00:15:53;100448.09;;;5.71;57.63
59272;BME280;45043;51.068;7.026;2024-02-14T00:18:54;100449.91;;;5.70;57.85
59272;BME280;45043;51.068;7.026;2024-02-14T00:21:55;100449.56;;;5.73;57.83
59272;BME280;45043;51.068;7.026;2024-02-14T00:24:55;100444.94;;;5.67;57.87
59272;BME280;45043;51.068;7.026;2024-02-14T00:27:56;100440.66;;;5.74;57.85
59272;BME280;45043;51.068;7.026;2024-02-14T00:30:59;100434.25;;;5.69;57.62
59272;BME280;45043;51.068;7.026;2024-02-14T00:34:00;100443.16;;;5.76;57.59
59272;BME280;45043;51.068;7.026;2024-02-14T00:37:01;100439.69;;;5.67;57.76
59272;BME280;45043;51.068;7.026;2024-02-14T00:40:04;100440.69;;;5.58;58.22
59272;BME280;45043;51.068;7.026;2024-02-14T00:43:05;100443.16;;;5.59;58.00
59272;BME280;45043;51.068;7.026;2024-02-14T00:46:06;100448.09;;;5.46;58.46
59272;BME280;45043;51.068;7.026;2024-02-14T00:49:07;100456.81;;;5.38;58.89
59272;BME280;45043;51.068;7.026;2024-02-14T00:52:09;100449.38;;;5.34;58.99
59272;BME280;45043;51.068;7.026;2024-02-14T00:55:09;100438.69;;;5.35;59.19
59272;BME280;45043;51.068;7.026;2024-02-14T00:58:10;100440.34;;;5.36;59.27
59272;BME280;45043;51.068;7.026;2024-02-14T01:01:10;100430.63;;;5.37;59.67
59272;BME280;45043;51.068;7.026;2024-02-14T01:04:12;100441.34;;;5.35;59.98
59272;BME280;45043;51.068;7.026;2024-02-14T01:07:13;100434.75;;;5.39;59.92
59272;BME280;45043;51.068;7.026;2024-02-14T01:10:15;100430.13;;;5.41;60.11
59272;BME280;45043;51.068;7.026;2024-02-14T01:13:18;100424.84;;;5.41;60.32
59272;BME280;45043;51.068;7.026;2024-02-14T01:16:20;100428.16;;;5.44;60.40
59272;BME280;45043;51.068;7.026;2024-02-14T01:19:21;100423.06;;;5.50;60.32
59272;BME280;45043;51.068;7.026;2024-02-14T01:22:24;100418.28;;;5.54;60.26
59272;BME280;45043;51.068;7.026;2024-02-14T01:25:26;100420.56;;;5.49;60.34
59272;BME280;45043;51.068;7.026;2024-02-14T01:28:28;100414.66;;;5.55;60.42
59272;BME280;45043;51.068;7.026;2024-02-14T01:31:28;100410.69;;;5.59;60.12
59272;BME280;45043;51.068;7.026;2024-02-14T01:34:30;100400.16;;;5.59;60.01
59272;BME280;45043;51.068;7.026;2024-02-14T01:37:31;100400.34;;;5.57;60.28
59272;BME280;45043;51.068;7.026;2024-02-14T01:40:33;100399.97;;;5.60;60.06
59272;BME280;45043;51.068;7.026;2024-02-14T01:43:34;100397.69;;;5.65;59.81
59272;BME280;45043;51.068;7.026;2024-02-14T01:46:35;100394.06;;;5.66;59.98
59272;BME280;45043;51.068;7.026;2024-02-14T01:49:35;100404.44;;;5.68;60.02
59272;BME280;45043;51.068;7.026;2024-02-14T01:52:39;100397.03;;;5.63;60.19
59272;BME280;45043;51.068;7.026;2024-02-14T01:55:41;100412.34;;;5.68;60.08
59272;BME280;45043;51.068;7.026;2024-02-14T01:58:44;100418.44;;;5.60;60.27
59272;BME280;45043;51.068;7.026;2024-02-14T02:01:45;100415.31;;;5.57;60.36
59272;BME280;45043;51.068;7.026;2024-02-14T02:04:47;100400.97;;;5.59;60.35
59272;BME280;45043;51.068;7.026;2024-02-14T02:07:47;100399.84;;;5.62;60.40
59272;BME280;45043;51.068;7.026;2024-02-14T02:10:50;100400.31;;;5.65;60.70
59272;BME280;45043;51.068;7.026;2024-02-14T02:13:51;100398.81;;;5.71;60.74
59272;BME280;45043;51.068;7.026;2024-02-14T02:16:52;100397.19;;;5.70;60.44
59272;BME280;45043;51.068;7.026;2024-02-14T02:19:53;100409.88;;;5.66;60.45
59272;BME280;45043;51.068;7.026;2024-02-14T02:22:55;100412.34;;;5.60;60.75
59272;BME280;45043;51.068;7.026;2024-02-14T02:25:56;100404.78;;;5.57;60.97
59272;BME280;45043;51.068;7.026;2024-02-14T02:28:58;100385.03;;;5.61;61.07
59272;BME280;45043;51.068;7.026;2024-02-14T02:32:00;100399.97;;;5.60;61.16
59272;BME280;45043;51.068;7.026;2024-02-14T02:35:01;100400.47;;;5.56;61.22
59272;BME280;45043;51.068;7.026;2024-02-14T02:38:05;100402.78;;;5.59;61.48
59272;BME280;45043;51.068;7.026;2024-02-14T02:41:06;100398.69;;;5.64;61.25
59272;BME280;45043;51.068;7.026;2024-02-14T02:44:07;100402.13;;;5.65;61.52
59272;BME280;45043;51.068;7.026;2024-02-14T02:47:09;100414.00;;;5.61;61.54
59272;BME280;45043;51.068;7.026;2024-02-14T02:50:11;100422.56;;;5.63;61.60
59272;BME280;45043;51.068;7.026;2024-02-14T02:53:13;100426.50;;;5.67;61.89
59272;BME280;45043;51.068;7.026;2024-02-14T02:56:14;100419.78;;;5.64;61.80
59272;BME280;45043;51.068;7.026;2024-02-14T02:59:16;100419.28;;;5.61;61.97
59272;BME280;45043;51.068;7.026;2024-02-14T03:02:19;100428.31;;;5.58;62.07
59272;BME280;45043;51.068;7.026;2024-02-14T03:05:21;100431.97;;;5.57;62.28
59272;BME280;45043;51.068;7.026;2024-02-14T03:08:23;100429.97;;;5.51;62.65
59272;BME280;45043;51.068;7.026;2024-02-14T03:11:28;100419.59;;;5.50;62.89
59272;BME280;45043;51.068;7.026;2024-02-14T03:14:30;100415.81;;;5.52;62.83
59272;BME280;45043;51.068;7.026;2024-02-14T03:17:38;100416.63;;;5.53;62.81
59272;BME280;45043;51.068;7.026;2024-02-14T03:20:38;100418.63;;;5.51;62.98
59272;BME280;45043;51.068;7.026;2024-02-14T03:23:43;100415.81;;;5.52;63.18
59272;BME280;45043;51.068;7.026;2024-02-14T03:26:46;100410.53;;;5.52;63.22
59272;BME280;45043;51.068;7.026;2024-02-14T03:29:48;100406.75;;;5.55;63.07
59272;BME280;45043;51.068;7.026;2024-02-14T03:32:51;100409.56;;;5.61;62.97
59272;BME280;45043;51.068;7.026;2024-02-14T03:35:53;100409.69;;;5.60;63.01
59272;BME280;45043;51.068;7.026;2024-02-14T03:38:54;100403.47;;;5.61;63.10
59272;BME280;45043;51.068;7.026;2024-02-14T03:41:55;100412.34;;;5.60;63.23
59272;BME280;45043;51.068;7.026;2024-02-14T03:44:56;100412.69;;;5.57;63.33
59272;BME280;45043;51.068;7.026;2024-02-14T03:48:03;100410.69;;;5.59;63.29
59272;BME280;45043;51.068;7.026;2024-02-14T03:51:06;100407.25;;;5.58;63.38
59272;BME280;45043;51.068;7.026;2024-02-14T03:54:07;100410.88;;;5.57;63.59
59272;BME280;45043;51.068;7.026;2024-02-14T03:57:08;100399.53;;;5.57;63.79
59272;BME280;45043;51.068;7.026;2024-02-14T04:00:09;100413.50;;;5.57;63.95
59272;BME280;45043;51.068;7.026;2024-02-14T04:03:18;100413.66;;;5.56;63.87
59272;BME280;45043;51.068;7.026;2024-02-14T04:06:20;100409.69;;;5.60;64.18
59272;BME280;45043;51.068;7.026;2024-02-14T04:09:22;100416.66;;;5.61;64.21
59272;BME280;45043;51.068;7.026;2024-02-14T04:12:22;100410.06;;;5.65;64.02
59272;BME280;45043;51.068;7.026;2024-02-14T04:15:24;100415.47;;;5.63;64.07
59272;BME280;45043;51.068;7.026;2024-02-14T04:18:25;100424.19;;;5.64;64.19
59272;BME280;45043;51.068;7.026;2024-02-14T04:21:26;100415.81;;;5.69;64.15
59272;BME280;45043;51.068;7.026;2024-02-14T04:24:28;100417.44;;;5.70;64.15
59272;BME280;45043;51.068;7.026;2024-02-14T04:27:30;100420.75;;;5.72;64.36
59272;BME280;45043;51.068;7.026;2024-02-14T04:30:31;100424.84;;;5.74;64.35
59272;BME280;45043;51.068;7.026;2024-02-14T04:33:32;100424.84;;;5.74;64.44
59272;BME280;45043;51.068;7.026;2024-02-14T04:36:32;100428.50;;;5.65;64.99
59272;BME280;45043;51.068;7.026;2024-02-14T04:39:36;100424.56;;;5.61;64.94
59272;BME280;45043;51.068;7.026;2024-02-14T04:42:37;100423.22;;;5.65;64.84
59272;BME280;45043;51.068;7.026;2024-02-14T04:45:38;100417.13;;;5.64;64.79
59272;BME280;45043;51.068;7.026;2024-02-14T04:48:39;100412.84;;;5.63;65.37
59272;BME280;45043;51.068;7.026;2024-02-14T04:51:40;100421.41;;;5.65;65.08
59272;BME280;45043;51.068;7.026;2024-02-14T04:54:42;100422.41;;;5.64;65.22
59272;BME280;45043;51.068;7.026;2024-02-14T04:57:44;100430.81;;;5.68;65.23
59272;BME280;45043;51.068;7.026;2024-02-14T05:00:45;100436.06;;;5.76;64.88
59272;BME280;45043;51.068;7.026;2024-02-14T05:03:46;100423.03;;;5.75;65.10
59272;BME280;45043;51.068;7.026;2024-02-14T05:06:49;100426.50;;;5.75;64.74
59272;BME280;45043;51.068;7.026;2024-02-14T05:09:50;100434.41;;;5.75;64.86
59272;BME280;45043;51.068;7.026;2024-02-14T05:12:53;100444.63;;;5.70;65.09
59272;BME280;45043;51.068;7.026;2024-02-14T05:15:53;100444.94;;;5.67;65.23
59272;BME280;45043;51.068;7.026;2024-02-14T05:18:54;100439.69;;;5.67;65.23
59272;BME280;45043;51.068;7.026;2024-02-14T05:21:55;100444.63;;;5.70;65.11
59272;BME280;45043;51.068;7.026;2024-02-14T05:24:56;100441.84;;;5.72;65.45
59272;BME280;45043;51.068;7.026;2024-02-14T05:27:57;100447.91;;;5.88;65.30
59272;BME280;45043;51.068;7.026;2024-02-14T05:31:00;100455.47;;;6.08;65.25
59272;BME280;45043;51.068;7.026;2024-02-14T05:34:01;100461.06;;;6.21;65.18
59272;BME280;45043;51.068;7.026;2024-02-14T05:37:02;100459.53;;;6.27;64.89
59272;BME280;45043;51.068;7.026;2024-02-14T05:40:04;100457.91;;;6.26;64.92
59272;BME280;45043;51.068;7.026;2024-02-14T05:43:08;100465.34;;;6.22;65.16
59272;BME280;45043;51.068;7.026;2024-02-14T05:46:09;100455.94;;;6.20;65.65
59272;BME280;45043;51.068;7.026;2024-02-14T05:49:11;100472.28;;;6.15;66.08
59272;BME280;45043;51.068;7.026;2024-02-14T05:52:12;100474.25;;;6.21;66.60
59272;BME280;45043;51.068;7.026;2024-02-14T05:55:13;100470.53;;;6.55;66.64
59272;BME280;45043;51.068;7.026;2024-02-14T05:58:15;100476.06;;;6.84;66.13
59272;BME280;45043;51.068;7.026;2024-02-14T06:01:16;100468.72;;;7.03;65.96
59272;BME280;45043;51.068;7.026;2024-02-14T06:04:16;100464.63;;;7.23;65.55
59272;BME280;45043;51.068;7.026;2024-02-14T06:07:18;100466.91;;;7.26;65.38
59272;BME280;45043;51.068;7.026;2024-02-14T06:10:18;100455.47;;;7.34;64.99
59272;BME280;45043;51.068;7.026;2024-02-14T06:13:19;100460.19;;;7.47;64.81
59272;BME280;45043;51.068;7.026;2024-02-14T06:16:20;100457.28;;;7.56;64.38
59272;BME280;45043;51.068;7.026;2024-02-14T06:19:21;100460.03;;;7.63;63.96
59272;BME280;45043;51.068;7.026;2024-02-14T06:22:22;100469.47;;;7.66;63.72
59272;BME280;45043;51.068;7.026;2024-02-14T06:25:23;100480.63;;;7.76;63.72
59272;BME280;45043;51.068;7.026;2024-02-14T06:28:23;100482.72;;;7.80;63.41
59272;BME280;45043;51.068;7.026;2024-02-14T06:31:24;100487.00;;;7.81;63.28
59272;BME280;45043;51.068;7.026;2024-02-14T06:34:25;100485.66;;;7.86;63.09
59272;BME280;45043;51.068;7.026;2024-02-14T06:37:28;100481.19;;;7.86;63.08
59272;BME280;45043;51.068;7.026;2024-02-14T06:40:28;100485.41;;;7.95;63.13
59272;BME280;45043;51.068;7.026;2024-02-14T06:43:29;100482.03;;;8.01;62.65
59272;BME280;45043;51.068;7.026;2024-02-14T06:46:30;100494.09;;;8.04;62.54
59272;BME280;45043;51.068;7.026;2024-02-14T06:49:32;100487.97;;;8.03;62.59
59272;BME280;45043;51.068;7.026;2024-02-14T06:52:34;100480.50;;;8.07;62.27
59272;BME280;45043;51.068;7.026;2024-02-14T06:55:35;100494.81;;;7.98;62.54
59272;BME280;45043;51.068;7.026;2024-02-14T06:58:36;100493.50;;;7.94;62.25
59272;BME280;45043;51.068;7.026;2024-02-14T07:01:37;100497.75;;;8.03;62.08
59272;BME280;45043;51.068;7.026;2024-02-14T07:04:38;100502.50;;;8.07;61.93
59272;BME280;45043;51.068;7.026;2024-02-14T07:07:40;100499.69;;;7.86;62.12
59272;BME280;45043;51.068;7.026;2024-02-14T07:10:42;100504.38;;;7.61;62.45
59272;BME280;45043;51.068;7.026;2024-02-14T07:13:43;100506.22;;;7.52;62.79
59272;BME280;45043;51.068;7.026;2024-02-14T07:16:43;100507.63;;;7.63;62.69
59272;BME280;45043;51.068;7.026;2024-02-14T07:19:44;100508.53;;;7.55;62.88
59272;BME280;45043;51.068;7.026;2024-02-14T07:22:50;100507.47;;;7.65;62.91
59272;BME280;45043;51.068;7.026;2024-02-14T07:25:54;100522.56;;;7.56;62.84
59272;BME280;45043;51.068;7.026;2024-02-14T07:28:54;100525.31;;;7.63;62.79
59272;BME280;45043;51.068;7.026;2024-02-14T07:31:56;100522.16;;;7.67;62.60
59272;BME280;45043;51.068;7.026;2024-02-14T07:34:59;100522.16;;;7.67;62.58
59272;BME280;45043;51.068;7.026;2024-02-14T07:41:20;100517.09;;;7.80;62.27
59272;BME280;45043;51.068;7.026;2024-02-14T07:44:21;100512.84;;;7.71;62.69
59272;BME280;45043;51.068;7.026;2024-02-14T07:47:22;100526.47;;;7.68;62.97
59272;BME280;45043;51.068;7.026;2024-02-14T07:50:22;100519.09;;;7.78;62.49
59272;BME280;45043;51.068;7.026;2024-02-14T07:53:23;100533.59;;;7.82;62.30
59272;BME280;45043;51.068;7.026;2024-02-14T07:56:23;100537.91;;;7.83;62.26
59272;BME280;45043;51.068;7.026;2024-02-14T07:59:24;100532.72;;;7.90;62.25
59272;BME280;45043;51.068;7.026;2024-02-14T08:02:26;100540.78;;;7.97;62.05
59272;BME280;45043;51.068;7.026;2024-02-14T08:05:29;100537.44;;;8.03;61.84
59272;BME280;45043;51.068;7.026;2024-02-14T08:08:30;100532.41;;;8.08;61.44
59272;BME280;45043;51.068;7.026;2024-02-14T08:11:32;100519.38;;;8.06;61.67
59272;BME280;45043;51.068;7.026;2024-02-14T08:14:33;100527.47;;;8.05;61.73
59272;BME280;45043;51.068;7.026;2024-02-14T08:17:34;100535.13;;;8.00;61.82
59272;BME280;45043;51.068;7.026;2024-02-14T08:20:36;100535.47;;;7.97;61.75
59272;BME280;45043;51.068;7.026;2024-02-14T08:23:37;100539.47;;;7.93;61.75
59272;BME280;45043;51.068;7.026;2024-02-14T08:26:40;100534.66;;;7.96;61.63
59272;BME280;45043;51.068;7.026;2024-02-14T08:29:41;100539.78;;;7.98;61.38
59272;BME280;45043;51.068;7.026;2024-02-14T08:32:41;100534.66;;;7.96;61.42
59272;BME280;45043;51.068;7.026;2024-02-14T08:35:42;100538.91;;;8.05;61.38
59272;BME280;45043;51.068;7.026;2024-02-14T08:38:43;100546.66;;;8.07;61.09
59272;BME280;45043;51.068;7.026;2024-02-14T08:41:44;100546.78;;;7.91;61.33
59272;BME280;45043;51.068;7.026;2024-02-14T08:44:47;100542.19;;;7.84;61.62
59272;BME280;45043;51.068;7.026;2024-02-14T08:47:48;100542.25;;;7.76;61.86
59272;BME280;45043;51.068;7.026;2024-02-14T08:50:49;100556.84;;;7.72;61.89
59272;BME280;45043;51.068;7.026;2024-02-14T08:53:49;100545.81;;;7.60;62.22
59272;BME280;45043;51.068;7.026;2024-02-14T08:56:56;100555.94;;;7.57;62.22
59272;BME280;45043;51.068;7.026;2024-02-14T08:59:59;100558.13;;;7.45;62.51
59272;BME280;45043;51.068;7.026;2024-02-14T09:03:02;100561.50;;;7.39;62.88
59272;BME280;45043;51.068;7.026;2024-02-14T09:06:06;100554.19;;;7.41;63.18
59272;BME280;45043;51.068;7.026;2024-02-14T09:09:07;100555.69;;;7.44;62.97
59272;BME280;45043;51.068;7.026;2024-02-14T09:12:10;100560.31;;;7.42;63.42
59272;BME280;45043;51.068;7.026;2024-02-14T09:15:11;100547.56;;;7.45;63.59
59272;BME280;45043;51.068;7.026;2024-02-14T09:18:12;100547.81;;;7.58;63.39
59272;BME280;45043;51.068;7.026;2024-02-14T09:21:13;100551.47;;;7.57;63.47
59272;BME280;45043;51.068;7.026;2024-02-14T09:24:16;100547.66;;;7.60;63.60
59272;BME280;45043;51.068;7.026;2024-02-14T09:27:23;100555.91;;;7.65;63.65
59272;BME280;45043;51.068;7.026;2024-02-14T09:30:23;100554.28;;;7.79;63.42
59272;BME280;45043;51.068;7.026;2024-02-14T09:33:25;100560.44;;;7.79;63.18
59272;BME280;45043;51.068;7.026;2024-02-14T09:36:26;100559.00;;;7.69;63.48
59272;BME280;45043;51.068;7.026;2024-02-14T09:39:27;100557.19;;;7.69;63.74
59272;BME280;45043;51.068;7.026;2024-02-14T09:42:38;100557.59;;;7.81;63.47
59272;BME280;45043;51.068;7.026;2024-02-14T09:45:44;100565.00;;;7.86;63.39
59272;BME280;45043;51.068;7.026;2024-02-14T09:48:46;100557.38;;;7.91;63.41
59272;BME280;45043;51.068;7.026;2024-02-14T09:51:48;100560.66;;;7.93;63.22
59272;BME280;45043;51.068;7.026;2024-02-14T09:54:52;100561.66;;;7.92;63.29
59272;BME280;45043;51.068;7.026;2024-02-14T09:57:54;100572.88;;;7.94;63.24
59272;BME280;45043;51.068;7.026;2024-02-14T10:00:56;100568.09;;;7.89;63.11
59272;BME280;45043;51.068;7.026;2024-02-14T10:03:58;100566.63;;;7.87;63.33
59272;BME280;45043;51.068;7.026;2024-02-14T10:06:59;100576.59;;;7.84;63.20
59272;BME280;45043;51.068;7.026;2024-02-14T10:10:07;100572.94;;;7.86;63.28
59272;BME280;45043;51.068;7.026;2024-02-14T10:13:10;100576.03;;;7.89;63.45
59272;BME280;45043;51.068;7.026;2024-02-14T10:16:11;100579.81;;;7.95;63.25
59272;BME280;45043;51.068;7.026;2024-02-14T10:19:18;100582.28;;;7.96;63.46
59272;BME280;45043;51.068;7.026;2024-02-14T10:22:20;100578.47;;;7.99;63.46
59272;BME280;45043;51.068;7.026;2024-02-14T10:25:20;100590.16;;;8.04;63.42
59272;BME280;45043;51.068;7.026;2024-02-14T10:28:23;100599.09;;;8.03;63.77
59272;BME280;45043;51.068;7.026;2024-02-14T10:31:26;100596.25;;;8.05;63.67
59272;BME280;45043;51.068;7.026;2024-02-14T10:34:27;100599.03;;;8.12;63.91
59272;BME280;45043;51.068;7.026;2024-02-14T10:37:29;100606.28;;;8.18;63.96
59272;BME280;45043;51.068;7.026;2024-02-14T10:40:32;100600.31;;;8.16;63.94
59272;BME280;45043;51.068;7.026;2024-02-14T10:43:35;100595.84;;;8.24;63.93
59272;BME280;45043;51.068;7.026;2024-02-14T10:46:38;100590.63;;;8.31;63.94
59272;BME280;45043;51.068;7.026;2024-02-14T10:49:43;100594.16;;;8.46;63.52
59272;BME280;45043;51.068;7.026;2024-02-14T10:52:48;100593.78;;;8.49;63.04
59272;BME280;45043;51.068;7.026;2024-02-14T10:55:51;100599.53;;;8.53;62.97
59272;BME280;45043;51.068;7.026;2024-02-14T10:58:56;100596.38;;;8.58;62.94
59272;BME280;45043;51.068;7.026;2024-02-14T11:02:02;100605.69;;;8.53;63.26
59272;BME280;45043;51.068;7.026;2024-02-14T11:05:03;100604.19;;;8.51;63.21
59272;BME280;45043;51.068;7.026;2024-02-14T11:08:19;100596.88;;;8.53;63.05
59272;BME280;45043;51.068;7.026;2024-02-14T11:11:25;100598.47;;;8.62;63.01
59272;BME280;45043;51.068;7.026;2024-02-14T11:14:31;100590.59;;;8.54;63.23
59272;BME280;45043;51.068;7.026;2024-02-14T11:17:33;100600.53;;;8.52;63.73
59272;BME280;45043;51.068;7.026;2024-02-14T11:20:35;100605.09;;;8.43;64.14
59272;BME280;45043;51.068;7.026;2024-02-14T11:23:36;100611.56;;;8.41;64.70
59272;BME280;45043;51.068;7.026;2024-02-14T11:26:46;100613.16;;;8.27;65.95
59272;BME280;45043;51.068;7.026;2024-02-14T11:29:51;100605.44;;;8.17;67.35
59272;BME280;45043;51.068;7.026;2024-02-14T11:32:52;100595.56;;;8.11;67.78
59272;BME280;45043;51.068;7.026;2024-02-14T11:35:54;100601.97;;;8.17;68.20
59272;BME280;45043;51.068;7.026;2024-02-14T11:38:57;100602.25;;;8.22;68.28
59272;BME280;45043;51.068;7.026;2024-02-14T11:41:58;100604.31;;;8.35;68.32
59272;BME280;45043;51.068;7.026;2024-02-14T11:45:00;100616.28;;;8.30;68.48
59272;BME280;45043;51.068;7.026;2024-02-14T11:48:01;100601.75;;;8.26;68.76
59272;BME280;45043;51.068;7.026;2024-02-14T11:51:04;100597.25;;;8.35;68.56
59272;BME280;45043;51.068;7.026;2024-02-14T11:54:08;100599.34;;;8.40;68.24
59272;BME280;45043;51.068;7.026;2024-02-14T11:57:10;100591.88;;;8.43;68.12
59272;BME280;45043;51.068;7.026;2024-02-14T12:00:12;100585.66;;;8.51;67.93
59272;BME280;45043;51.068;7.026;2024-02-14T12:03:18;100580.72;;;8.48;67.60
59272;BME280;45043;51.068;7.026;2024-02-14T12:06:19;100580.72;;;8.48;67.31
59272;BME280;45043;51.068;7.026;2024-02-14T12:09:21;100580.91;;;8.46;66.84
59272;BME280;45043;51.068;7.026;2024-02-14T12:12:22;100580.25;;;8.44;66.71
59272;BME280;45043;51.068;7.026;2024-02-14T12:15:26;100587.00;;;8.32;67.60
59272;BME280;45043;51.068;7.026;2024-02-14T12:18:28;100586.22;;;8.23;67.81
59272;BME280;45043;51.068;7.026;2024-02-14T12:21:35;100576.97;;;8.19;68.42
59272;BME280;45043;51.068;7.026;2024-02-14T12:24:37;100584.56;;;8.22;68.33
59272;BME280;45043;51.068;7.026;2024-02-14T12:27:38;100582.06;;;8.29;68.31
59272;BME280;45043;51.068;7.026;2024-02-14T12:30:48;100579.88;;;8.32;68.14
59272;BME280;45043;51.068;7.026;2024-02-14T12:33:50;100574.84;;;8.38;68.03
59272;BME280;45043;51.068;7.026;2024-02-14T12:36:53;100575.97;;;8.43;67.88
59272;BME280;45043;51.068;7.026;2024-02-14T12:39:54;100570.50;;;8.45;67.73
59272;BME280;45043;51.068;7.026;2024-02-14T12:42:56;100584.16;;;8.34;68.23
59272;BME280;45043;51.068;7.026;2024-02-14T12:45:59;100578.94;;;8.25;68.52
59272;BME280;45043;51.068;7.026;2024-02-14T12:49:00;100571.03;;;8.17;69.09
59272;BME280;45043;51.068;7.026;2024-02-14T12:52:02;100579.06;;;8.09;69.63
59272;BME280;45043;51.068;7.026;2024-02-14T12:55:07;100588.16;;;8.06;69.83
59272;BME280;45043;51.068;7.026;2024-02-14T12:58:09;100572.09;;;8.08;70.05
59272;BME280;45043;51.068;7.026;2024-02-14T13:01:14;100556.88;;;8.10;70.08
59272;BME280;45043;51.068;7.026;2024-02-14T13:04:15;100564.28;;;8.15;70.15
59272;BME280;45043;51.068;7.026;2024-02-14T13:07:16;100557.81;;;8.17;70.19
59272;BME280;45043;51.068;7.026;2024-02-14T13:10:17;100568.06;;;8.20;69.83
59272;BME280;45043;51.068;7.026;2024-02-14T13:13:20;100563.72;;;8.27;69.63
59272;BME280;45043;51.068;7.026;2024-02-14T13:16:20;100561.97;;;8.35;69.39
59272;BME280;45043;51.068;7.026;2024-02-14T13:19:21;100562.28;;;8.40;69.14
59272;BME280;45043;51.068;7.026;2024-02-14T13:22:24;100562.19;;;8.48;68.58
59272;BME280;45043;51.068;7.026;2024-02-14T13:25:26;100553.25;;;8.49;68.78
59272;BME280;45043;51.068;7.026;2024-02-14T13:28:26;100552.25;;;8.50;68.42
59272;BME280;45043;51.068;7.026;2024-02-14T13:31:27;100559.53;;;8.48;68.07
59272;BME280;45043;51.068;7.026;2024-02-14T13:34:29;100559.53;;;8.48;67.75
59272;BME280;45043;51.068;7.026;2024-02-14T13:37:30;100559.34;;;8.49;67.94
59272;BME280;45043;51.068;7.026;2024-02-14T13:40:32;100553.91;;;8.51;67.65
59272;BME280;45043;51.068;7.026;2024-02-14T13:43:33;100557.16;;;8.53;67.53
59272;BME280;45043;51.068;7.026;2024-02-14T13:46:34;100556.19;;;8.54;67.50
59272;BME280;45043;51.068;7.026;2024-02-14T13:49:36;100560.13;;;8.58;67.23
59272;BME280;45043;51.068;7.026;2024-02-14T13:52:37;100555.63;;;8.59;66.85
59272;BME280;45043;51.068;7.026;2024-02-14T13:55:39;100555.81;;;8.57;66.92
59272;BME280;45043;51.068;7.026;2024-02-14T13:58:40;100556.00;;;8.55;67.10
59272;BME280;45043;51.068;7.026;2024-02-14T14:01:41;100557.81;;;8.55;67.28
59272;BME280;45043;51.068;7.026;2024-02-14T14:04:43;100544.94;;;8.52;67.34
59272;BME280;45043;51.068;7.026;2024-02-14T14:07:44;100535.97;;;8.53;67.70
59272;BME280;45043;51.068;7.026;2024-02-14T14:10:45;100555.19;;;8.55;67.83
59272;BME280;45043;51.068;7.026;2024-02-14T14:13:46;100551.06;;;8.52;68.11
59272;BME280;45043;51.068;7.026;2024-02-14T14:16:46;100548.59;;;8.51;68.54
59272;BME280;45043;51.068;7.026;2024-02-14T14:19:47;100543.19;;;8.44;69.27
59272;BME280;45043;51.068;7.026;2024-02-14T14:22:48;100550.69;;;8.41;69.24
59272;BME280;45043;51.068;7.026;2024-02-14T14:25:49;100538.16;;;8.35;69.39
59272;BME280;45043;51.068;7.026;2024-02-14T14:28:49;100553.69;;;8.38;69.94
59272;BME280;45043;51.068;7.026;2024-02-14T14:31:50;100554.03;;;8.35;70.17
59272;BME280;45043;51.068;7.026;2024-02-14T14:34:51;100548.28;;;8.31;70.50
59272;BME280;45043;51.068;7.026;2024-02-14T14:37:52;100555.44;;;8.22;71.36
59272;BME280;45043;51.068;7.026;2024-02-14T14:40:54;100555.25;;;8.09;71.97
59272;BME280;45043;51.068;7.026;2024-02-14T14:43:56;100558.59;;;8.03;72.69
59272;BME280;45043;51.068;7.026;2024-02-14T14:46:57;100550.06;;;7.93;73.09
59272;BME280;45043;51.068;7.026;2024-02-14T14:49:57;100557.53;;;7.89;73.78
59272;BME280;45043;51.068;7.026;2024-02-14T14:52:59;100560.44;;;7.79;74.95
59272;BME280;45043;51.068;7.026;2024-02-14T14:55:59;100560.47;;;7.71;75.61
59272;BME280;45043;51.068;7.026;2024-02-14T14:59:01;100562.00;;;7.66;76.10
59272;BME280;45043;51.068;7.026;2024-02-14T15:02:03;100568.59;;;7.70;76.31
59272;BME280;45043;51.068;7.026;2024-02-14T15:05:09;100555.06;;;7.65;76.88
59272;BME280;45043;51.068;7.026;2024-02-14T15:08:10;100558.53;;;7.65;77.40
59272;BME280;45043;51.068;7.026;2024-02-14T15:11:11;100565.16;;;7.61;77.68
59272;BME280;45043;51.068;7.026;2024-02-14T15:14:16;100555.56;;;7.60;78.01
59272;BME280;45043;51.068;7.026;2024-02-14T15:17:19;100559.22;;;7.59;78.42
59272;BME280;45043;51.068;7.026;2024-02-14T15:20:21;100553.66;;;7.54;78.78
59272;BME280;45043;51.068;7.026;2024-02-14T15:23:21;100546.88;;;7.51;79.68
59272;BME280;45043;51.068;7.026;2024-02-14T15:26:22;100547.41;;;7.47;79.95
59272;BME280;45043;51.068;7.026;2024-02-14T15:29:25;100547.22;;;7.48;80.23
59272;BME280;45043;51.068;7.026;2024-02-14T15:32:44;100539.81;;;7.44;80.66
59272;BME280;45043;51.068;7.026;2024-02-14T15:36:04;100548.38;;;7.46;80.81
59272;BME280;45043;51.068;7.026;2024-02-14T15:39:05;100545.09;;;7.44;81.05
59272;BME280;45043;51.068;7.026;2024-02-14T15:42:07;100552.38;;;7.42;81.12
59272;BME280;45043;51.068;7.026;2024-02-14T15:45:08;100554.03;;;7.43;81.31
59272;BME280;45043;51.068;7.026;2024-02-14T15:48:12;100553.22;;;7.42;81.53
59272;BME280;45043;51.068;7.026;2024-02-14T15:51:14;100554.34;;;7.48;81.46
59272;BME280;45043;51.068;7.026;2024-02-14T15:54:16;100555.00;;;7.50;81.14
59272;BME280;45043;51.068;7.026;2024-02-14T15:57:17;100559.28;;;7.51;81.22
59272;BME280;45043;51.068;7.026;2024-02-14T16:00:18;100546.06;;;7.51;81.65
59272;BME280;45043;51.068;7.026;2024-02-14T16:03:18;100568.97;;;7.58;81.20
59272;BME280;45043;51.068;7.026;2024-02-14T16:06:19;100565.88;;;7.55;81.55